createdAt,value
2023-03-15T00:00:50.522Z,1.70
2023-03-15T00:03:17.664Z,1.80
2023-03-15T00:05:45.620Z,1.40
2023-03-15T00:08:12.970Z,1.90
2023-03-15T00:10:43.476Z,1.50
2023-03-15T00:13:10.980Z,2.20
2023-03-15T00:15:38.276Z,1.40
2023-03-15T00:18:05.413Z,1.70
2023-03-15T00:20:33.669Z,1.73
2023-03-15T00:23:00.836Z,1.60
2023-03-15T00:25:28.029Z,1.83
2023-03-15T00:27:55.147Z,1.77
2023-03-15T00:30:22.421Z,1.70
2023-03-15T00:32:49.708Z,1.63
2023-03-15T00:35:18.323Z,1.53
2023-03-15T00:37:45.542Z,1.87
2023-03-15T00:40:13.107Z,1.50
2023-03-15T00:42:40.760Z,1.83
2023-03-15T00:45:08.628Z,1.57
2023-03-15T00:47:35.785Z,1.60
2023-03-15T00:50:02.910Z,1.23
2023-03-15T00:52:35.862Z,1.60
2023-03-15T00:55:03.194Z,1.40
2023-03-15T00:57:30.644Z,1.97
2023-03-15T00:59:57.850Z,1.30
2023-03-15T01:02:24.979Z,2.07
2023-03-15T01:04:52.109Z,1.60
2023-03-15T01:07:19.252Z,1.57
2023-03-15T01:09:48.440Z,1.50
2023-03-15T01:12:15.687Z,1.53
2023-03-15T01:14:42.881Z,1.30
2023-03-15T01:17:10.144Z,1.50
2023-03-15T01:19:37.248Z,1.70
2023-03-15T01:22:04.397Z,1.70
2023-03-15T01:24:32.485Z,1.50
2023-03-15T01:26:59.629Z,1.77
2023-03-15T01:29:27.470Z,1.43
2023-03-15T01:31:54.762Z,1.70
2023-03-15T01:34:21.910Z,1.60
2023-03-15T01:36:55.086Z,1.80
2023-03-15T01:39:22.329Z,1.50
2023-03-15T01:41:49.656Z,1.50
2023-03-15T01:44:17.567Z,2.00
2023-03-15T01:46:44.790Z,1.50
2023-03-15T01:49:24.145Z,1.70
2023-03-15T01:51:59.512Z,1.60
2023-03-15T01:54:34.954Z,1.43
2023-03-15T01:57:04.895Z,1.73
2023-03-15T01:59:41.447Z,1.40
2023-03-15T02:02:09.093Z,1.57
2023-03-15T02:04:41.204Z,1.50
2023-03-15T02:07:08.918Z,1.20
2023-03-15T02:09:42.955Z,1.67
2023-03-15T02:12:10.968Z,1.50
2023-03-15T02:14:38.570Z,1.40
2023-03-15T02:17:05.795Z,1.83
2023-03-15T02:19:41.182Z,1.17
2023-03-15T02:22:17.579Z,1.50
2023-03-15T02:24:53.166Z,1.50
2023-03-15T02:27:23.309Z,1.53
2023-03-15T02:29:50.924Z,1.43
2023-03-15T02:32:18.075Z,1.63
2023-03-15T02:34:46.372Z,1.10
2023-03-15T02:37:13.572Z,1.70
2023-03-15T02:39:40.734Z,1.40
2023-03-15T02:42:08.194Z,1.67
2023-03-15T02:44:37.401Z,1.60
2023-03-15T02:47:13.380Z,1.43
2023-03-15T02:49:43.150Z,1.23
2023-03-15T02:52:10.654Z,1.47
2023-03-15T02:54:39.331Z,1.23
2023-03-15T02:57:06.723Z,1.90
2023-03-15T02:59:33.893Z,1.30
2023-03-15T03:02:01.058Z,1.93
2023-03-15T03:04:28.237Z,1.60
2023-03-15T03:06:55.387Z,1.33
2023-03-15T03:09:23.196Z,1.40
2023-03-15T03:11:50.320Z,1.90
2023-03-15T03:14:17.442Z,1.50
2023-03-15T03:16:44.654Z,1.40
2023-03-15T03:19:12.569Z,1.80
2023-03-15T03:21:39.709Z,1.30
2023-03-15T03:24:06.993Z,1.30
2023-03-15T03:26:34.104Z,1.60
2023-03-15T03:29:01.441Z,1.23
2023-03-15T03:31:28.987Z,1.07
2023-03-15T03:33:57.002Z,1.33
2023-03-15T03:36:25.542Z,1.33
2023-03-15T03:38:53.729Z,1.60
2023-03-15T03:41:21.334Z,1.87
2023-03-15T03:43:48.606Z,1.60
2023-03-15T03:46:15.768Z,1.57
2023-03-15T03:48:42.888Z,1.40
2023-03-15T03:51:10.089Z,1.40
2023-03-15T03:53:37.525Z,1.70
2023-03-15T03:56:08.048Z,1.50
2023-03-15T03:58:35.204Z,1.20
2023-03-15T04:01:02.350Z,1.40
2023-03-15T04:03:29.477Z,1.20
2023-03-15T04:05:57.333Z,1.50
2023-03-15T04:08:24.993Z,1.63
2023-03-15T04:10:53.222Z,1.27
2023-03-15T04:13:21.220Z,1.30
2023-03-15T04:15:48.718Z,1.70
2023-03-15T04:18:15.965Z,1.67
2023-03-15T04:20:49.454Z,1.60
2023-03-15T04:23:19.070Z,1.60
2023-03-15T04:25:48.650Z,1.20
2023-03-15T04:28:15.782Z,1.63
2023-03-15T04:30:43.115Z,1.67
2023-03-15T04:33:10.881Z,1.60
2023-03-15T04:35:42.579Z,1.63
2023-03-15T04:38:09.988Z,1.60
2023-03-15T04:40:37.203Z,1.80
2023-03-15T04:43:05.410Z,1.80
2023-03-15T04:45:33.069Z,1.57
2023-03-15T04:48:01.523Z,1.53
2023-03-15T04:50:29.214Z,2.17
2023-03-15T04:52:56.402Z,1.60
2023-03-15T04:55:24.168Z,1.40
2023-03-15T04:57:51.418Z,1.67
2023-03-15T05:00:18.693Z,1.80
2023-03-15T05:02:52.024Z,1.60
2023-03-15T05:05:19.212Z,1.60
2023-03-15T05:07:46.321Z,1.60
2023-03-15T05:10:13.532Z,1.47
2023-03-15T05:12:40.951Z,1.70
2023-03-15T05:15:08.545Z,1.60
2023-03-15T05:17:35.677Z,1.67
2023-03-15T05:20:08.028Z,1.70
2023-03-15T05:22:35.161Z,1.90
2023-03-15T05:25:02.328Z,1.60
2023-03-15T05:27:29.578Z,1.80
2023-03-15T05:29:57.044Z,1.57
2023-03-15T05:32:27.117Z,1.80
2023-03-15T05:34:57.330Z,1.50
2023-03-15T05:37:24.721Z,1.50
2023-03-15T05:39:51.901Z,1.70
2023-03-15T05:42:26.299Z,1.80
2023-03-15T05:44:53.798Z,1.60
2023-03-15T05:47:21.241Z,1.90
2023-03-15T05:49:48.492Z,2.10
2023-03-15T05:52:15.764Z,1.80
2023-03-15T05:54:43.416Z,1.87
2023-03-15T05:57:10.707Z,1.50
2023-03-15T05:59:37.862Z,1.83
2023-03-15T06:02:05.127Z,1.90
2023-03-15T06:04:32.390Z,1.50
2023-03-15T06:06:59.551Z,1.40
2023-03-15T06:09:26.742Z,1.83
2023-03-15T06:11:53.884Z,1.53
2023-03-15T06:14:21.064Z,1.93
2023-03-15T06:16:48.462Z,1.73
2023-03-15T06:19:15.603Z,1.53
2023-03-15T06:21:42.735Z,1.70
2023-03-15T06:24:09.850Z,1.70
2023-03-15T06:26:37.103Z,1.40
2023-03-15T06:29:04.327Z,1.87
2023-03-15T06:31:31.452Z,1.90
2023-03-15T06:33:58.625Z,1.63
2023-03-15T06:36:25.829Z,1.70
2023-03-15T06:38:54.586Z,2.00
2023-03-15T06:41:21.874Z,1.60
2023-03-15T06:43:48.992Z,1.73
2023-03-15T06:46:16.322Z,1.63
2023-03-15T06:48:43.584Z,1.83
2023-03-15T06:51:10.809Z,1.60
2023-03-15T06:53:38.003Z,1.50
2023-03-15T06:56:05.291Z,2.43
2023-03-15T06:58:32.491Z,1.50
2023-03-15T07:00:59.614Z,1.77
2023-03-15T07:03:26.775Z,1.90
2023-03-15T07:05:54.669Z,1.50
2023-03-15T07:08:23.001Z,2.30
2023-03-15T07:10:50.483Z,1.40
2023-03-15T07:13:18.240Z,1.30
2023-03-15T07:15:45.783Z,1.77
2023-03-15T07:18:12.950Z,1.80
2023-03-15T07:20:40.112Z,1.43
2023-03-15T07:23:07.252Z,1.77
2023-03-15T07:25:44.982Z,1.70
2023-03-15T07:28:19.487Z,1.53
2023-03-15T07:31:12.997Z,1.67
2023-03-15T07:33:40.517Z,2.17
2023-03-15T07:36:08.360Z,1.80
2023-03-15T07:38:36.270Z,2.40
2023-03-15T07:41:04.035Z,1.57
2023-03-15T07:43:31.244Z,1.30
2023-03-15T07:45:58.640Z,1.60
2023-03-15T07:48:25.844Z,1.70
2023-03-15T07:50:53.015Z,2.00
2023-03-15T07:53:20.302Z,1.90
2023-03-15T07:55:48.087Z,1.80
2023-03-15T07:58:15.331Z,1.73
2023-03-15T08:00:42.786Z,1.50
2023-03-15T08:03:10.551Z,1.20
2023-03-15T08:05:38.191Z,1.83
2023-03-15T08:08:05.477Z,1.40
2023-03-15T08:10:32.890Z,1.73
2023-03-15T08:13:00.060Z,1.83
2023-03-15T08:15:27.264Z,1.37
2023-03-15T08:17:54.409Z,1.47
2023-03-15T08:20:22.435Z,1.57
2023-03-15T08:22:51.469Z,1.30
2023-03-15T08:25:20.420Z,1.50
2023-03-15T08:27:47.624Z,2.10
2023-03-15T08:30:15.817Z,1.83
2023-03-15T08:32:44.386Z,1.40
2023-03-15T08:35:15.519Z,1.10
2023-03-15T08:37:47.696Z,1.80
2023-03-15T08:40:16.008Z,1.67
2023-03-15T08:42:43.162Z,1.60
2023-03-15T08:45:11.299Z,1.40
2023-03-15T08:47:38.525Z,1.40
2023-03-15T08:50:07.228Z,1.50
2023-03-15T08:52:34.380Z,1.50
2023-03-15T08:55:01.623Z,1.70
2023-03-15T08:57:29.714Z,1.10
2023-03-15T08:59:57.592Z,1.50
2023-03-15T09:02:24.997Z,1.60
2023-03-15T09:04:53.523Z,1.30
2023-03-15T09:07:21.924Z,1.50
2023-03-15T09:09:49.171Z,1.30
2023-03-15T09:12:16.856Z,1.37
2023-03-15T09:14:44.674Z,1.10
2023-03-15T09:17:12.272Z,1.23
2023-03-15T09:19:39.681Z,1.90
2023-03-15T09:22:16.883Z,1.40
2023-03-15T09:24:51.809Z,1.23
2023-03-15T09:27:19.293Z,2.00
2023-03-15T09:29:46.516Z,1.40
2023-03-15T09:32:13.642Z,1.63
2023-03-15T09:34:42.272Z,1.63
2023-03-15T09:37:09.889Z,1.40
2023-03-15T09:39:37.049Z,0.90
2023-03-15T09:42:06.493Z,1.43
2023-03-15T09:44:39.998Z,1.07
2023-03-15T09:47:07.197Z,1.53
2023-03-15T09:49:44.860Z,1.20
2023-03-15T09:52:14.961Z,1.40
2023-03-15T09:54:45.141Z,1.40
2023-03-15T09:57:35.501Z,1.57
2023-03-15T10:00:05.721Z,1.27
2023-03-15T10:02:33.181Z,1.50
2023-03-15T10:05:00.346Z,1.23
2023-03-15T10:07:27.480Z,1.60
2023-03-15T10:09:58.430Z,1.70
2023-03-15T10:12:40.737Z,1.50
2023-03-15T10:15:26.574Z,1.40
2023-03-15T10:17:59.853Z,1.30
2023-03-15T10:20:28.602Z,1.50
2023-03-15T10:23:01.627Z,1.40
2023-03-15T10:25:29.980Z,1.30
2023-03-15T10:28:02.615Z,2.00
2023-03-15T10:30:31.247Z,1.50
2023-03-15T10:33:15.081Z,1.43
2023-03-15T10:35:42.857Z,1.37
2023-03-15T10:38:20.927Z,1.40
2023-03-15T10:40:52.094Z,1.27
2023-03-15T10:43:22.159Z,1.73
2023-03-15T10:46:12.604Z,1.60
2023-03-15T10:48:41.216Z,1.53
2023-03-15T10:51:16.310Z,1.10
2023-03-15T10:54:02.194Z,1.53
2023-03-15T10:56:32.612Z,1.70
2023-03-15T10:59:12.527Z,1.30
2023-03-15T11:01:40.660Z,1.33
2023-03-15T11:04:08.029Z,1.13
2023-03-15T11:06:41.211Z,1.27
2023-03-15T11:09:12.937Z,1.43
2023-03-15T11:11:50.096Z,1.53
2023-03-15T11:14:18.429Z,1.73
2023-03-15T11:16:48.057Z,1.27
2023-03-15T11:19:21.159Z,1.40
2023-03-15T11:21:50.097Z,1.87
2023-03-15T11:24:25.782Z,1.53
2023-03-15T11:26:55.011Z,1.40
2023-03-15T11:29:24.116Z,1.27
2023-03-15T11:31:51.964Z,1.50
2023-03-15T11:34:28.335Z,1.47
2023-03-15T11:37:08.335Z,1.40
2023-03-15T11:40:08.717Z,1.50
2023-03-15T11:42:42.368Z,1.13
2023-03-15T11:45:17.177Z,1.43
2023-03-15T11:47:50.545Z,1.80
2023-03-15T11:50:18.046Z,1.30
2023-03-15T11:52:48.999Z,1.70
2023-03-15T11:55:22.045Z,1.50
2023-03-15T11:57:49.693Z,1.63
2023-03-15T12:00:22.334Z,1.23
2023-03-15T12:02:51.242Z,1.60
2023-03-15T12:05:37.314Z,1.70
2023-03-15T12:08:21.138Z,1.47
2023-03-15T12:10:49.810Z,1.40
2023-03-15T12:13:23.014Z,1.60
2023-03-15T12:15:50.724Z,1.30
2023-03-15T12:18:19.739Z,1.67
2023-03-15T12:20:51.599Z,1.87
2023-03-15T12:23:18.728Z,1.30
2023-03-15T12:25:54.815Z,1.60
2023-03-15T12:28:31.559Z,1.70
2023-03-15T12:31:01.990Z,1.60
2023-03-15T12:33:31.711Z,1.60
2023-03-15T12:36:03.151Z,1.33
2023-03-15T12:38:37.286Z,1.30
2023-03-15T12:41:09.225Z,1.97
2023-03-15T12:43:43.598Z,1.77
2023-03-15T12:46:29.480Z,1.90
2023-03-15T12:49:28.981Z,1.80
2023-03-15T12:52:01.177Z,1.60
2023-03-15T12:54:33.536Z,1.93
2023-03-15T12:57:03.010Z,1.57
2023-03-15T12:59:35.922Z,1.97
2023-03-15T13:02:03.873Z,2.13
2023-03-15T13:04:31.841Z,2.00
2023-03-15T13:07:05.341Z,1.70
2023-03-15T13:09:45.032Z,1.80
2023-03-15T13:12:26.388Z,2.00
2023-03-15T13:15:05.517Z,2.10
2023-03-15T13:17:36.905Z,2.07
2023-03-15T13:20:23.117Z,1.90
2023-03-15T13:22:58.552Z,1.63
2023-03-15T13:25:33.621Z,1.90
2023-03-15T13:28:06.457Z,2.33
2023-03-15T13:30:34.810Z,1.80
2023-03-15T13:33:03.124Z,1.97
2023-03-15T13:35:30.377Z,1.83
2023-03-15T13:38:08.227Z,1.77
2023-03-15T13:40:35.417Z,1.90
2023-03-15T13:43:02.684Z,1.90
2023-03-15T13:45:29.883Z,1.93
2023-03-15T13:47:57.106Z,2.20
2023-03-15T13:50:24.433Z,2.00
2023-03-15T13:52:51.582Z,1.50
2023-03-15T13:55:23.279Z,2.23
2023-03-15T13:57:54.176Z,1.57
2023-03-15T14:00:23.316Z,1.60
2023-03-15T14:03:01.356Z,1.93
2023-03-15T14:05:44.436Z,1.80
2023-03-15T14:08:19.163Z,2.20
2023-03-15T14:10:57.592Z,1.80
2023-03-15T14:13:29.274Z,1.80
2023-03-15T14:15:57.847Z,2.10
2023-03-15T14:18:26.032Z,2.13
2023-03-15T14:20:55.200Z,1.97
2023-03-15T14:23:24.533Z,2.00
2023-03-15T14:25:52.829Z,2.00
2023-03-15T14:28:20.790Z,2.17
2023-03-15T14:30:56.745Z,2.17
2023-03-15T14:33:34.304Z,2.20
2023-03-15T14:36:03.336Z,2.60
2023-03-15T14:38:37.783Z,2.20
2023-03-15T14:41:34.351Z,2.17
2023-03-15T14:44:03.135Z,2.60
2023-03-15T14:46:33.280Z,2.17
2023-03-15T14:49:00.842Z,2.50
2023-03-15T14:51:29.088Z,2.60
2023-03-15T14:53:57.872Z,2.17
2023-03-15T14:56:25.764Z,2.90
2023-03-15T14:58:54.203Z,2.50
2023-03-15T15:01:23.886Z,2.80
2023-03-15T15:03:55.573Z,2.07
2023-03-15T15:06:22.762Z,2.30
2023-03-15T15:08:56.633Z,2.20
2023-03-15T15:11:23.786Z,2.60
2023-03-15T15:13:50.922Z,2.63
2023-03-15T15:16:18.332Z,2.50
2023-03-15T15:18:45.568Z,2.00
2023-03-15T15:21:20.345Z,2.30
2023-03-15T15:23:57.824Z,1.93
2023-03-15T15:26:27.032Z,1.83
2023-03-15T15:28:54.531Z,2.10
2023-03-15T15:31:22.937Z,1.90
2023-03-15T15:33:50.957Z,1.90
2023-03-15T15:36:32.594Z,1.70
2023-03-15T15:39:06.530Z,2.00
2023-03-15T15:41:34.049Z,1.90
2023-03-15T15:44:01.350Z,2.03
2023-03-15T15:46:28.757Z,2.13
2023-03-15T15:48:55.931Z,2.43
2023-03-15T15:51:27.669Z,2.10
2023-03-15T15:53:57.045Z,2.00
2023-03-15T15:56:27.821Z,2.30
2023-03-15T15:58:55.086Z,2.43
2023-03-15T16:01:22.314Z,2.00
2023-03-15T16:03:49.772Z,2.10
2023-03-15T16:06:18.730Z,2.67
2023-03-15T16:08:46.242Z,2.17
2023-03-15T16:11:14.199Z,2.00
2023-03-15T16:13:41.592Z,2.33
2023-03-15T16:16:12.352Z,2.37
2023-03-15T16:18:39.586Z,2.07
2023-03-15T16:21:06.898Z,2.73
2023-03-15T16:23:34.434Z,2.30
2023-03-15T16:26:01.649Z,2.03
2023-03-15T16:28:29.586Z,2.00
2023-03-15T16:30:56.758Z,2.47
2023-03-15T16:33:24.104Z,2.27
2023-03-15T16:35:53.421Z,2.47
2023-03-15T16:38:24.512Z,2.47
2023-03-15T16:40:53.185Z,2.37
2023-03-15T16:43:20.743Z,2.30
2023-03-15T16:45:48.609Z,2.43
2023-03-15T16:48:15.770Z,2.53
2023-03-15T16:50:46.688Z,2.50
2023-03-15T16:53:14.025Z,2.40
2023-03-15T16:55:41.400Z,2.50
2023-03-15T16:58:16.661Z,2.20
2023-03-15T17:00:46.580Z,2.43
2023-03-15T17:03:13.796Z,2.20
2023-03-15T17:05:41.891Z,2.83
2023-03-15T17:08:11.571Z,2.20
2023-03-15T17:10:38.820Z,2.63
2023-03-15T17:13:05.988Z,2.73
2023-03-15T17:15:33.264Z,2.77
2023-03-15T17:18:02.714Z,2.03
2023-03-15T17:20:30.050Z,2.37
2023-03-15T17:22:59.944Z,2.53
2023-03-15T17:25:28.301Z,2.20
2023-03-15T17:27:55.585Z,2.20
2023-03-15T17:30:27.138Z,2.10
2023-03-15T17:32:54.387Z,2.50
2023-03-15T17:35:22.424Z,2.63
2023-03-15T17:37:49.686Z,2.40
2023-03-15T17:40:27.465Z,2.47
2023-03-15T17:42:55.631Z,2.67
2023-03-15T17:45:23.864Z,2.43
2023-03-15T17:47:51.682Z,2.70
2023-03-15T17:50:19.368Z,2.30
2023-03-15T17:52:48.048Z,2.10
2023-03-15T17:55:16.743Z,2.33
2023-03-15T17:57:54.025Z,2.13
2023-03-15T18:00:22.342Z,2.40
2023-03-15T18:02:55.538Z,2.53
2023-03-15T18:05:26.782Z,2.70
2023-03-15T18:08:01.350Z,2.67
2023-03-15T18:10:36.303Z,2.57
2023-03-15T18:13:04.027Z,2.60
2023-03-15T18:15:31.232Z,2.67
2023-03-15T18:17:58.401Z,2.40
2023-03-15T18:20:25.962Z,2.40
2023-03-15T18:22:53.303Z,2.50
2023-03-15T18:25:22.640Z,2.40
2023-03-15T18:27:49.968Z,2.47
2023-03-15T18:30:18.798Z,2.40
2023-03-15T18:32:46.302Z,2.97
2023-03-15T18:35:21.006Z,2.60
2023-03-15T18:37:48.196Z,2.60
2023-03-15T18:40:16.191Z,2.43
2023-03-15T18:42:43.669Z,2.70
2023-03-15T18:45:18.305Z,2.43
2023-03-15T18:47:45.489Z,2.10
2023-03-15T18:50:13.195Z,1.80
2023-03-15T18:52:40.922Z,1.97
2023-03-15T18:55:08.685Z,2.30
2023-03-15T18:57:36.449Z,2.10
2023-03-15T19:00:13.085Z,2.20
2023-03-15T19:02:44.770Z,1.90
2023-03-15T19:05:13.021Z,1.90
2023-03-15T19:07:40.894Z,2.07
2023-03-15T19:10:09.088Z,2.50
2023-03-15T19:12:36.636Z,2.33
2023-03-15T19:15:05.571Z,2.20
2023-03-15T19:17:32.839Z,2.30
2023-03-15T19:19:59.969Z,2.33
2023-03-15T19:22:30.817Z,2.40
2023-03-15T19:24:58.039Z,2.00
2023-03-15T19:27:25.237Z,2.00
2023-03-15T19:29:52.388Z,2.27
2023-03-15T19:32:20.435Z,2.17
2023-03-15T19:34:47.706Z,2.13
2023-03-15T19:37:15.240Z,2.00
2023-03-15T19:39:42.497Z,1.83
2023-03-15T19:42:09.670Z,1.80
2023-03-15T19:44:36.835Z,2.30
2023-03-15T19:47:04.047Z,2.13
2023-03-15T19:49:31.169Z,2.00
2023-03-15T19:51:58.312Z,2.03
2023-03-15T19:54:25.461Z,2.40
2023-03-15T19:56:53.983Z,2.50
2023-03-15T19:59:21.133Z,2.53
2023-03-15T20:01:48.365Z,2.27
2023-03-15T20:04:15.583Z,1.83
2023-03-15T20:06:42.798Z,2.50
2023-03-15T20:09:11.228Z,1.97
2023-03-15T20:11:38.363Z,2.43
2023-03-15T20:14:05.492Z,2.30
2023-03-15T20:16:32.676Z,2.00
2023-03-15T20:18:59.899Z,2.50
2023-03-15T20:21:27.128Z,2.00
2023-03-15T20:23:54.384Z,2.70
2023-03-15T20:26:22.403Z,2.40
2023-03-15T20:28:50.280Z,2.30
2023-03-15T20:31:18.929Z,2.07
2023-03-15T20:33:48.460Z,2.23
2023-03-15T20:36:15.680Z,1.97
2023-03-15T20:38:43.092Z,2.10
2023-03-15T20:41:14.265Z,2.00
2023-03-15T20:43:41.924Z,2.20
2023-03-15T20:46:09.914Z,2.13
2023-03-15T20:48:37.545Z,2.30
2023-03-15T20:51:05.352Z,2.20
2023-03-15T20:53:33.135Z,2.50
2023-03-15T20:56:00.705Z,2.73
2023-03-15T20:58:27.892Z,2.53
2023-03-15T21:01:05.528Z,2.33
2023-03-15T21:03:34.348Z,2.50
2023-03-15T21:06:02.529Z,2.57
2023-03-15T21:08:30.257Z,2.50
2023-03-15T21:10:57.488Z,2.50
2023-03-15T21:13:24.884Z,2.40
2023-03-15T21:15:53.229Z,3.07
2023-03-15T21:18:21.841Z,3.10
2023-03-15T21:20:56.114Z,3.57
2023-03-15T21:23:23.386Z,3.40
2023-03-15T21:25:55.264Z,3.30
2023-03-15T21:28:22.699Z,3.10
2023-03-15T21:30:53.754Z,2.77
2023-03-15T21:33:21.609Z,3.00
2023-03-15T21:35:48.806Z,3.20
2023-03-15T21:38:16.284Z,2.50
2023-03-15T21:40:44.131Z,2.47
2023-03-15T21:43:11.411Z,2.80
2023-03-15T21:45:38.752Z,2.70
2023-03-15T21:48:06.288Z,2.03
2023-03-15T21:50:33.638Z,2.23
2023-03-15T21:53:01.791Z,2.07
2023-03-15T21:55:31.932Z,2.10
2023-03-15T21:57:59.173Z,2.27
2023-03-15T22:00:27.118Z,1.90
2023-03-15T22:02:55.778Z,2.30
2023-03-15T22:05:23.576Z,2.00
2023-03-15T22:07:50.798Z,1.97
2023-03-15T22:10:19.774Z,2.17
2023-03-15T22:12:46.984Z,2.33
2023-03-15T22:15:14.163Z,2.37
2023-03-15T22:17:41.624Z,2.40
2023-03-15T22:20:12.782Z,2.30
2023-03-15T22:22:40.240Z,2.13
2023-03-15T22:25:07.424Z,2.27
2023-03-15T22:27:34.558Z,2.33
2023-03-15T22:30:01.732Z,2.37
2023-03-15T22:32:28.931Z,2.40
2023-03-15T22:34:56.088Z,2.47
2023-03-15T22:37:23.933Z,2.37
2023-03-15T22:39:51.111Z,2.10
2023-03-15T22:42:18.248Z,2.30
2023-03-15T22:44:45.398Z,2.23
2023-03-15T22:47:12.689Z,2.20
2023-03-15T22:49:39.809Z,2.30
2023-03-15T22:52:07.153Z,1.97
2023-03-15T22:54:34.332Z,2.10
2023-03-15T22:57:01.469Z,2.10
2023-03-15T22:59:29.093Z,2.10
2023-03-15T23:01:57.033Z,2.40
2023-03-15T23:04:24.401Z,2.00
2023-03-15T23:06:51.745Z,2.13
2023-03-15T23:09:18.901Z,2.00
2023-03-15T23:11:46.080Z,2.00
2023-03-15T23:14:13.230Z,2.23
2023-03-15T23:16:40.485Z,2.07
2023-03-15T23:19:07.688Z,1.80
2023-03-15T23:21:34.825Z,1.60
2023-03-15T23:24:01.963Z,1.70
2023-03-15T23:26:29.156Z,1.70
2023-03-15T23:28:56.336Z,1.67
2023-03-15T23:31:23.532Z,1.90
2023-03-15T23:33:50.752Z,1.90
2023-03-15T23:36:17.890Z,1.80
2023-03-15T23:38:45.036Z,1.70
2023-03-15T23:41:12.450Z,1.90
2023-03-15T23:43:39.571Z,1.80
2023-03-15T23:46:06.881Z,1.80
2023-03-15T23:48:37.024Z,1.77
2023-03-15T23:51:04.284Z,1.90
2023-03-15T23:53:31.813Z,1.70
2023-03-15T23:55:58.991Z,1.60
2023-03-15T23:58:26.137Z,1.50
